createdAt,value
2016-04-17T00:00:11.099Z,19.12
2016-04-17T00:01:11.132Z,19.21
2016-04-17T00:02:11.057Z,19.23
2016-04-17T00:03:11.060Z,19.13
2016-04-17T00:04:11.032Z,19.23
2016-04-17T00:05:11.019Z,19.23
2016-04-17T00:06:10.990Z,19.16
2016-04-17T00:07:10.977Z,19.25
2016-04-17T00:08:10.948Z,19.2
2016-04-17T00:09:11.874Z,19.21
2016-04-17T00:10:10.923Z,19.21
2016-04-17T00:11:10.895Z,19.27
2016-04-17T00:12:10.882Z,19.27
2016-04-17T00:13:10.853Z,19.23
2016-04-17T00:14:10.839Z,19.2
2016-04-17T00:15:10.811Z,19.15
2016-04-17T00:16:10.798Z,19.13
2016-04-17T00:17:11.989Z,19.21
2016-04-17T00:18:10.756Z,19.16
2016-04-17T00:19:10.744Z,19.17
2016-04-17T00:20:10.730Z,19.21
2016-04-17T00:21:10.703Z,19.23
2016-04-17T00:22:10.689Z,19.06
2016-04-17T00:23:10.677Z,19.09
2016-04-17T00:24:10.648Z,19.09
2016-04-17T00:25:10.619Z,19.12
2016-04-17T00:26:10.606Z,19.12
2016-04-17T00:27:10.593Z,19.1
2016-04-17T00:28:10.580Z,19.12
2016-04-17T00:29:10.567Z,19.15
2016-04-17T00:30:10.570Z,19.13
2016-04-17T00:31:10.510Z,19.12
2016-04-17T00:32:10.497Z,19.16
2016-04-17T00:33:10.484Z,19.13
2016-04-17T00:34:10.471Z,19.05
2016-04-17T00:35:10.443Z,19.09
2016-04-17T00:36:10.430Z,19.12
2016-04-17T00:37:10.402Z,19.13
2016-04-17T00:38:10.404Z,19.07
2016-04-17T00:39:10.376Z,19.02
2016-04-17T00:40:10.362Z,19.12
2016-04-17T00:41:10.318Z,19.12
2016-04-17T00:42:10.321Z,19.02
2016-04-17T00:43:10.309Z,19.09
2016-04-17T00:44:10.264Z,19.05
2016-04-17T00:45:10.251Z,19.1
2016-04-17T00:46:10.253Z,19.07
2016-04-17T00:47:10.241Z,18.99
2016-04-17T00:48:10.197Z,19.09
2016-04-17T00:49:10.184Z,19.06
2016-04-17T00:50:10.203Z,19.07
2016-04-17T00:51:10.158Z,19.12
2016-04-17T00:52:10.130Z,19.07
2016-04-17T00:53:10.117Z,19.09
2016-04-17T00:54:10.089Z,19.01
2016-04-17T00:55:10.075Z,19.02
2016-04-17T00:56:10.047Z,19.09
2016-04-17T00:57:10.018Z,19.07
2016-04-17T00:58:10.317Z,18.97
2016-04-17T00:59:09.991Z,19.07
2016-04-17T01:00:09.980Z,19.02
2016-04-17T01:01:09.950Z,19.12
2016-04-17T01:02:09.938Z,19.1
2016-04-17T01:03:09.924Z,19.05
2016-04-17T01:04:09.896Z,19.06
2016-04-17T01:05:09.883Z,18.96
2016-04-17T01:06:10.527Z,18.97
2016-04-17T01:07:09.857Z,18.97
2016-04-17T01:08:09.844Z,19.01
2016-04-17T01:09:09.815Z,19.07
2016-04-17T01:10:09.787Z,18.96
2016-04-17T01:11:09.759Z,18.96
2016-04-17T01:12:09.762Z,19.01
2016-04-17T01:13:09.718Z,18.97
2016-04-17T01:14:10.470Z,19.02
2016-04-17T01:15:09.706Z,18.99
2016-04-17T01:16:09.678Z,18.96
2016-04-17T01:17:09.650Z,19.02
2016-04-17T01:18:09.637Z,18.99
2016-04-17T01:19:09.624Z,18.99
2016-04-17T01:20:09.611Z,18.97
2016-04-17T01:21:09.583Z,19.06
2016-04-17T01:22:10.413Z,18.97
2016-04-17T01:23:09.556Z,18.93
2016-04-17T01:24:09.528Z,18.9
2016-04-17T01:25:09.500Z,19.02
2016-04-17T01:26:09.486Z,18.91
2016-04-17T01:27:09.474Z,18.97
2016-04-17T01:28:09.288Z,19.01
2016-04-17T01:29:09.432Z,18.94
2016-04-17T01:30:09.528Z,18.91
2016-04-17T01:31:09.406Z,19.06
2016-04-17T01:32:09.377Z,18.91
2016-04-17T01:33:09.365Z,19.05
2016-04-17T01:34:09.335Z,18.96
2016-04-17T01:35:09.324Z,19.02
2016-04-17T01:36:09.310Z,18.93
2016-04-17T01:37:09.282Z,18.96
2016-04-17T01:38:09.503Z,18.93
2016-04-17T01:39:09.256Z,18.97
2016-04-17T01:40:09.226Z,18.91
2016-04-17T01:41:09.215Z,18.99
2016-04-17T01:42:09.185Z,18.91
2016-04-17T01:43:09.173Z,18.99
2016-04-17T01:44:09.144Z,18.97
2016-04-17T01:45:09.240Z,18.96
2016-04-17T01:46:09.571Z,18.97
2016-04-17T01:47:09.106Z,18.99
2016-04-17T01:48:09.076Z,18.94
2016-04-17T01:49:09.048Z,18.94
2016-04-17T01:50:09.035Z,18.99
2016-04-17T01:51:09.022Z,18.99
2016-04-17T01:52:09.009Z,18.94
2016-04-17T01:53:09.231Z,18.97
2016-04-17T01:54:08.968Z,18.97
2016-04-17T01:55:08.939Z,18.93
2016-04-17T01:56:08.927Z,18.96
2016-04-17T01:57:08.913Z,18.97
2016-04-17T01:58:08.885Z,18.91
2016-04-17T01:59:08.872Z,18.93
2016-04-17T02:00:08.859Z,18.94
2016-04-17T02:01:09.127Z,18.96
2016-04-17T02:02:08.818Z,18.97
2016-04-17T02:03:08.804Z,18.99
2016-04-17T02:04:08.777Z,18.96
2016-04-17T02:05:08.763Z,18.99
2016-04-17T02:06:08.735Z,18.99
2016-04-17T02:07:08.706Z,18.87
2016-04-17T02:08:08.709Z,18.94
2016-04-17T02:09:09.180Z,18.96
2016-04-17T02:10:08.699Z,18.96
2016-04-17T02:11:08.670Z,18.9
2016-04-17T02:12:08.641Z,18.94
2016-04-17T02:13:08.597Z,18.94
2016-04-17T02:14:08.646Z,18.99
2016-04-17T02:15:08.586Z,18.97
2016-04-17T02:16:08.543Z,18.97
2016-04-17T02:17:09.139Z,18.99
2016-04-17T02:18:08.532Z,18.91
2016-04-17T02:19:08.519Z,18.89
2016-04-17T02:20:08.475Z,18.99
2016-04-17T02:21:08.478Z,18.93
2016-04-17T02:22:08.439Z,18.94
2016-04-17T02:23:08.425Z,18.97
2016-04-17T02:24:08.413Z,18.97
2016-04-17T02:25:09.228Z,18.9
2016-04-17T02:26:08.371Z,18.96
2016-04-17T02:27:08.343Z,18.91
2016-04-17T02:28:08.330Z,18.89
2016-04-17T02:29:08.301Z,18.93
2016-04-17T02:30:08.288Z,18.87
2016-04-17T02:31:08.275Z,18.9
2016-04-17T02:32:08.247Z,18.83
2016-04-17T02:33:08.438Z,18.87
2016-04-17T02:34:08.221Z,18.91
2016-04-17T02:35:08.208Z,18.83
2016-04-17T02:36:08.179Z,18.83
2016-04-17T02:37:08.151Z,18.91
2016-04-17T02:38:08.138Z,18.86
2016-04-17T02:39:08.126Z,18.87
2016-04-17T02:40:08.440Z,18.83
2016-04-17T02:41:08.427Z,18.9
2016-04-17T02:42:08.070Z,18.93
2016-04-17T02:43:08.057Z,18.87
2016-04-17T02:44:08.014Z,18.91
2016-04-17T02:45:08.017Z,18.87
2016-04-17T02:46:07.987Z,18.83
2016-04-17T02:47:07.959Z,18.86
2016-04-17T02:48:08.117Z,18.83
2016-04-17T02:49:07.934Z,18.84
2016-04-17T02:50:07.920Z,18.87
2016-04-17T02:51:07.892Z,18.89
2016-04-17T02:52:07.878Z,18.86
2016-04-17T02:53:07.866Z,18.84
2016-04-17T02:54:07.836Z,18.86
2016-04-17T02:55:07.934Z,18.9
2016-04-17T02:56:08.092Z,18.84
2016-04-17T02:57:07.783Z,18.87
2016-04-17T02:58:07.769Z,18.87
2016-04-17T02:59:07.741Z,18.87
2016-04-17T03:00:07.744Z,18.91
2016-04-17T03:01:07.699Z,18.83
2016-04-17T03:02:07.687Z,18.87
2016-04-17T03:03:07.658Z,18.83
2016-04-17T03:04:08.114Z,18.87
2016-04-17T03:05:07.632Z,18.89
2016-04-17T03:06:07.619Z,18.82
2016-04-17T03:07:07.591Z,18.87
2016-04-17T03:08:07.593Z,18.76
2016-04-17T03:09:07.549Z,18.74
2016-04-17T03:10:07.615Z,18.75
2016-04-17T03:11:07.523Z,18.82
2016-04-17T03:12:08.198Z,18.69
2016-04-17T03:13:07.482Z,18.89
2016-04-17T03:14:07.470Z,18.74
2016-04-17T03:15:07.456Z,18.76
2016-04-17T03:16:07.271Z,18.84
2016-04-17T03:17:07.398Z,18.75
2016-04-17T03:18:07.245Z,18.74
2016-04-17T03:19:07.373Z,18.82
2016-04-17T03:20:07.344Z,18.84
2016-04-17T03:21:07.331Z,18.75
2016-04-17T03:22:07.303Z,18.76
2016-04-17T03:23:07.306Z,18.86
2016-04-17T03:24:07.262Z,18.76
2016-04-17T03:25:07.264Z,18.75
2016-04-17T03:26:07.236Z,18.72
2016-04-17T03:27:07.066Z,18.76
2016-04-17T03:28:07.335Z,18.72
2016-04-17T03:29:07.165Z,18.76
2016-04-17T03:30:07.169Z,18.79
2016-04-17T03:31:07.155Z,18.74
2016-04-17T03:32:07.143Z,18.82
2016-04-17T03:33:07.098Z,18.76
2016-04-17T03:34:07.069Z,18.82
2016-04-17T03:35:07.056Z,18.76
2016-04-17T03:36:07.341Z,18.71
2016-04-17T03:37:07.046Z,18.76
2016-04-17T03:38:07.018Z,18.86
2016-04-17T03:39:07.004Z,18.83
2016-04-17T03:40:07.132Z,18.75
2016-04-17T03:41:06.948Z,18.78
2016-04-17T03:42:06.935Z,18.75
2016-04-17T03:43:06.906Z,18.78
2016-04-17T03:44:06.909Z,18.72
2016-04-17T03:45:06.881Z,18.76
2016-04-17T03:46:06.851Z,18.75
2016-04-17T03:47:06.854Z,18.78
2016-04-17T03:48:06.842Z,18.79
2016-04-17T03:49:06.798Z,18.82
2016-04-17T03:50:06.785Z,18.79
2016-04-17T03:51:06.787Z,18.76
2016-04-17T03:52:06.742Z,18.74
2016-04-17T03:53:06.731Z,18.76
2016-04-17T03:54:06.702Z,18.79
2016-04-17T03:55:06.580Z,18.79
2016-04-17T03:56:06.675Z,18.76
2016-04-17T03:57:06.647Z,18.76
2016-04-17T03:58:06.650Z,18.75
2016-04-17T03:59:06.605Z,18.76
2016-04-17T04:00:06.608Z,18.71
2016-04-17T04:01:06.564Z,18.78
2016-04-17T04:02:06.552Z,18.78
2016-04-17T04:03:06.522Z,18.78
2016-04-17T04:04:06.525Z,18.79
2016-04-17T04:05:06.497Z,18.76
2016-04-17T04:06:06.485Z,18.75
2016-04-17T04:07:06.471Z,18.78
2016-04-17T04:08:06.443Z,18.74
2016-04-17T04:09:06.429Z,18.76
2016-04-17T04:10:06.307Z,18.75
2016-04-17T04:11:06.387Z,18.74
2016-04-17T04:12:06.360Z,18.78
2016-04-17T04:13:06.346Z,18.74
2016-04-17T04:14:06.334Z,18.72
2016-04-17T04:15:06.320Z,18.74
2016-04-17T04:16:06.293Z,18.74
2016-04-17T04:17:06.420Z,18.76
2016-04-17T04:18:06.251Z,18.68
2016-04-17T04:19:06.237Z,18.75
2016-04-17T04:20:06.209Z,18.71
2016-04-17T04:21:06.195Z,18.75
2016-04-17T04:22:06.183Z,18.74
2016-04-17T04:23:06.170Z,18.72
2016-04-17T04:24:06.142Z,18.75
2016-04-17T04:25:06.425Z,18.75
2016-04-17T04:26:06.100Z,18.71
2016-04-17T04:27:06.086Z,18.76
2016-04-17T04:28:06.058Z,18.69
2016-04-17T04:29:06.046Z,18.66
2016-04-17T04:30:06.017Z,18.65
2016-04-17T04:31:06.020Z,18.69
2016-04-17T04:32:05.991Z,18.69
2016-04-17T04:33:06.416Z,18.72
2016-04-17T04:34:05.950Z,18.69
2016-04-17T04:35:05.922Z,18.68
2016-04-17T04:36:05.908Z,18.74
2016-04-17T04:37:05.896Z,18.69
2016-04-17T04:38:05.882Z,18.62
2016-04-17T04:39:05.869Z,18.72
2016-04-17T04:40:05.841Z,18.64
2016-04-17T04:41:06.406Z,18.62
2016-04-17T04:42:05.799Z,18.69
2016-04-17T04:43:05.787Z,18.75
2016-04-17T04:44:05.757Z,18.65
2016-04-17T04:45:05.589Z,18.71
2016-04-17T04:46:05.731Z,18.64
2016-04-17T04:47:05.704Z,18.64
2016-04-17T04:48:05.675Z,18.64
2016-04-17T04:49:05.725Z,18.62
2016-04-17T04:50:05.648Z,18.6
2016-04-17T04:51:05.651Z,18.72
2016-04-17T04:52:05.608Z,18.62
2016-04-17T04:53:05.595Z,18.71
2016-04-17T04:54:05.566Z,18.6
2016-04-17T04:55:05.553Z,18.71
2016-04-17T04:56:05.539Z,18.6
2016-04-17T04:57:05.714Z,18.69
2016-04-17T04:58:05.499Z,18.62
2016-04-17T04:59:05.469Z,18.68
2016-04-17T05:00:05.458Z,18.62
2016-04-17T05:01:05.444Z,18.62
2016-04-17T05:02:05.275Z,18.71
2016-04-17T05:03:05.402Z,18.72
2016-04-17T05:04:05.390Z,18.66
2016-04-17T05:05:05.705Z,18.6
2016-04-17T05:06:05.349Z,18.64
2016-04-17T05:07:05.319Z,18.75
2016-04-17T05:08:05.307Z,18.62
2016-04-17T05:09:05.278Z,18.64
2016-04-17T05:10:05.282Z,18.65
2016-04-17T05:11:05.252Z,18.76
2016-04-17T05:12:05.333Z,18.66
2016-04-17T05:13:05.210Z,18.66
2016-04-17T05:14:05.182Z,18.64
2016-04-17T05:15:05.184Z,18.64
2016-04-17T05:16:05.157Z,18.65
2016-04-17T05:17:05.143Z,18.65
2016-04-17T05:18:05.115Z,18.68
2016-04-17T05:19:05.101Z,18.66
2016-04-17T05:20:05.370Z,18.69
2016-04-17T05:21:05.060Z,18.64
2016-04-17T05:22:05.032Z,18.62
2016-04-17T05:23:05.019Z,18.6
2016-04-17T05:24:04.850Z,18.76
2016-04-17T05:25:04.992Z,18.71
2016-04-17T05:26:04.964Z,18.57
2016-04-17T05:27:04.952Z,18.59
2016-04-17T05:28:05.392Z,18.64
2016-04-17T05:29:04.910Z,18.62
2016-04-17T05:30:04.897Z,18.59
2016-04-17T05:31:04.713Z,18.69
2016-04-17T05:32:04.855Z,18.64
2016-04-17T05:33:04.843Z,18.56
2016-04-17T05:34:04.658Z,18.62
2016-04-17T05:35:04.802Z,18.59
2016-04-17T05:36:05.382Z,18.56
2016-04-17T05:37:04.760Z,18.64
2016-04-17T05:38:04.731Z,18.62
2016-04-17T05:39:04.718Z,18.57
2016-04-17T05:40:04.705Z,18.64
2016-04-17T05:41:04.677Z,18.54
2016-04-17T05:42:04.663Z,18.56
2016-04-17T05:43:04.651Z,18.5
2016-04-17T05:44:04.623Z,18.49
2016-04-17T05:45:04.626Z,18.54
2016-04-17T05:46:04.596Z,18.6
2016-04-17T05:47:04.584Z,18.54
2016-04-17T05:48:04.555Z,18.51
2016-04-17T05:49:04.542Z,18.57
2016-04-17T05:50:04.529Z,18.5
2016-04-17T05:51:04.501Z,18.56
2016-04-17T05:52:04.676Z,18.57
2016-04-17T05:53:04.459Z,18.51
2016-04-17T05:54:04.446Z,18.57
2016-04-17T05:55:04.417Z,18.54
2016-04-17T05:56:04.405Z,18.54
2016-04-17T05:57:04.375Z,18.5
2016-04-17T05:58:04.395Z,18.51
2016-04-17T05:59:04.334Z,18.53
2016-04-17T06:00:04.681Z,18.54
2016-04-17T06:01:04.308Z,18.51
2016-04-17T06:02:04.297Z,18.47
2016-04-17T06:03:04.304Z,18.46
2016-04-17T06:04:04.331Z,18.54
2016-04-17T06:05:04.342Z,18.44
2016-04-17T06:06:04.370Z,18.51
2016-04-17T06:07:04.443Z,18.54
2016-04-17T06:08:04.384Z,18.54
2016-04-17T06:09:04.385Z,18.51
2016-04-17T06:10:04.387Z,18.51
2016-04-17T06:11:04.372Z,18.51
2016-04-17T06:12:04.374Z,18.36
2016-04-17T06:13:04.351Z,18.36
2016-04-17T06:14:04.344Z,18.53
2016-04-17T06:15:04.586Z,18.34
2016-04-17T06:16:04.313Z,18.46
2016-04-17T06:17:04.305Z,18.39
2016-04-17T06:18:04.278Z,18.34
2016-04-17T06:19:04.268Z,18.36
2016-04-17T06:20:04.256Z,18.35
2016-04-17T06:21:04.246Z,18.41
2016-04-17T06:22:04.203Z,18.35
2016-04-17T06:23:04.550Z,18.42
2016-04-17T06:24:04.179Z,18.32
2016-04-17T06:25:04.167Z,18.39
2016-04-17T06:26:04.139Z,18.39
2016-04-17T06:27:04.128Z,18.41
2016-04-17T06:28:04.114Z,18.39
2016-04-17T06:29:04.101Z,18.44
2016-04-17T06:30:04.088Z,18.38
2016-04-17T06:31:04.591Z,18.42
2016-04-17T06:32:04.031Z,18.39
2016-04-17T06:33:04.018Z,18.38
2016-04-17T06:34:03.989Z,18.39
2016-04-17T06:35:03.977Z,18.41
2016-04-17T06:36:03.963Z,18.35
2016-04-17T06:37:03.857Z,18.38
2016-04-17T06:38:03.907Z,18.35
2016-04-17T06:39:04.706Z,18.35
2016-04-17T06:40:03.881Z,18.35
2016-04-17T06:41:03.712Z,18.38
2016-04-17T06:42:03.839Z,18.41
2016-04-17T06:43:03.827Z,18.32
2016-04-17T06:44:03.813Z,18.31
2016-04-17T06:45:03.785Z,18.34
2016-04-17T06:46:03.788Z,18.36
2016-04-17T06:47:03.899Z,18.32
2016-04-17T06:48:03.746Z,18.38
2016-04-17T06:49:03.702Z,18.36
2016-04-17T06:50:03.689Z,18.35
2016-04-17T06:51:03.692Z,18.34
2016-04-17T06:52:03.648Z,18.38
2016-04-17T06:53:03.634Z,18.29
2016-04-17T06:54:03.622Z,18.32
2016-04-17T06:55:03.905Z,18.32
2016-04-17T06:56:03.580Z,18.38
2016-04-17T06:57:03.552Z,18.42
2016-04-17T06:58:03.538Z,18.31
2016-04-17T06:59:03.526Z,18.34
2016-04-17T07:00:03.513Z,18.35
2016-04-17T07:01:03.484Z,18.36
2016-04-17T07:02:03.456Z,18.35
2016-04-17T07:03:04.646Z,18.35
2016-04-17T07:04:03.430Z,18.31
2016-04-17T07:05:03.417Z,18.36
2016-04-17T07:06:03.388Z,18.31
2016-04-17T07:07:03.375Z,18.32
2016-04-17T07:08:03.347Z,18.25
2016-04-17T07:09:03.333Z,18.32
2016-04-17T07:10:03.321Z,18.32
2016-04-17T07:11:03.495Z,18.38
2016-04-17T07:12:03.296Z,18.32
2016-04-17T07:13:03.251Z,18.23
2016-04-17T07:14:03.237Z,18.32
2016-04-17T07:15:03.224Z,18.32
2016-04-17T07:16:03.196Z,18.31
2016-04-17T07:17:03.183Z,18.25
2016-04-17T07:18:03.171Z,18.32
2016-04-17T07:19:03.142Z,18.23
2016-04-17T07:20:03.113Z,18.25
2016-04-17T07:21:03.100Z,18.31
2016-04-17T07:22:03.088Z,18.26
2016-04-17T07:23:03.075Z,18.29
2016-04-17T07:24:03.046Z,18.31
2016-04-17T07:25:03.017Z,18.25
2016-04-17T07:26:02.895Z,18.34
2016-04-17T07:27:02.992Z,18.28
2016-04-17T07:28:02.979Z,18.26
2016-04-17T07:29:02.950Z,18.28
2016-04-17T07:30:02.937Z,18.28
2016-04-17T07:31:02.908Z,18.23
2016-04-17T07:32:02.911Z,18.21
2016-04-17T07:33:02.898Z,18.31
2016-04-17T07:34:02.855Z,18.25
2016-04-17T07:35:02.857Z,18.29
2016-04-17T07:36:02.922Z,18.28
2016-04-17T07:37:02.800Z,18.29
2016-04-17T07:38:02.772Z,18.2
2016-04-17T07:39:02.758Z,18.23
2016-04-17T07:40:02.746Z,18.23
2016-04-17T07:41:02.669Z,18.25
2016-04-17T07:42:02.719Z,18.29
2016-04-17T07:43:02.691Z,18.31
2016-04-17T07:44:02.975Z,18.26
2016-04-17T07:45:02.649Z,18.23
2016-04-17T07:46:02.637Z,18.26
2016-04-17T07:47:02.607Z,18.32
2016-04-17T07:48:02.595Z,18.25
2016-04-17T07:49:02.582Z,18.25
2016-04-17T07:50:02.553Z,18.25
2016-04-17T07:51:02.540Z,18.25
2016-04-17T07:52:02.981Z,18.26
2016-04-17T07:53:02.499Z,18.21
2016-04-17T07:54:02.502Z,18.34
2016-04-17T07:55:02.473Z,18.29
2016-04-17T07:56:02.492Z,18.25
2016-04-17T07:57:02.431Z,18.29
2016-04-17T07:58:02.434Z,18.26
2016-04-17T07:59:02.389Z,18.26
2016-04-17T08:00:02.971Z,18.32
2016-04-17T08:01:02.348Z,18.25
2016-04-17T08:02:02.336Z,18.32
2016-04-17T08:03:02.322Z,18.26
2016-04-17T08:04:02.138Z,18.25
2016-04-17T08:05:02.281Z,18.25
2016-04-17T08:06:02.252Z,18.29
2016-04-17T08:07:02.239Z,18.26
2016-04-17T08:08:02.242Z,18.25
2016-04-17T08:09:02.199Z,18.23
2016-04-17T08:10:02.186Z,18.26
2016-04-17T08:11:02.219Z,18.26
2016-04-17T08:12:02.143Z,18.2
2016-04-17T08:13:02.115Z,18.26
2016-04-17T08:14:01.977Z,18.26
2016-04-17T08:15:02.090Z,18.23
2016-04-17T08:16:02.296Z,18.23
2016-04-17T08:17:02.063Z,18.23
2016-04-17T08:18:02.018Z,18.26
2016-04-17T08:19:02.006Z,18.26
2016-04-17T08:20:01.978Z,18.26
2016-04-17T08:21:01.964Z,18.29
2016-04-17T08:22:01.952Z,18.26
2016-04-17T08:23:01.939Z,18.23
2016-04-17T08:24:02.254Z,18.31
2016-04-17T08:25:01.881Z,18.2
2016-04-17T08:26:01.962Z,18.31
2016-04-17T08:27:01.840Z,18.29
2016-04-17T08:28:01.843Z,18.19
2016-04-17T08:29:01.815Z,18.25
2016-04-17T08:30:01.801Z,18.26
2016-04-17T08:31:01.836Z,18.31
2016-04-17T08:32:01.760Z,18.17
2016-04-17T08:33:01.747Z,18.23
2016-04-17T08:34:01.734Z,18.21
2016-04-17T08:35:01.721Z,18.2
2016-04-17T08:36:01.692Z,18.29
2016-04-17T08:37:01.664Z,18.25
2016-04-17T08:38:01.635Z,18.19
2016-04-17T08:39:01.825Z,18.21
2016-04-17T08:40:01.594Z,18.25
2016-04-17T08:41:01.550Z,18.25
2016-04-17T08:42:01.569Z,18.21
2016-04-17T08:43:01.556Z,18.19
2016-04-17T08:44:01.527Z,18.17
2016-04-17T08:45:01.513Z,18.25
2016-04-17T08:46:01.501Z,18.21
2016-04-17T08:47:01.879Z,18.29
2016-04-17T08:48:01.457Z,18.23
2016-04-17T08:49:01.429Z,18.2
2016-04-17T08:50:01.415Z,18.17
2016-04-17T08:51:01.402Z,18.25
2016-04-17T08:52:01.390Z,18.19
2016-04-17T08:53:01.361Z,18.26
2016-04-17T08:54:01.332Z,18.19
2016-04-17T08:55:01.865Z,18.17
2016-04-17T08:56:01.197Z,18.21
2016-04-17T08:57:01.278Z,18.21
2016-04-17T08:58:01.249Z,18.17
2016-04-17T08:59:01.237Z,18.2
2016-04-17T09:00:01.223Z,18.21
2016-04-17T09:01:01.195Z,18.23
2016-04-17T09:02:01.182Z,18.19
2016-04-17T09:03:01.169Z,18.2
2016-04-17T09:04:01.156Z,18.29
2016-04-17T09:05:01.127Z,18.21
2016-04-17T09:06:01.114Z,18.2
2016-04-17T09:07:01.086Z,18.28
2016-04-17T09:08:01.089Z,18.19
2016-04-17T09:09:01.075Z,18.21
2016-04-17T09:10:01.031Z,18.2
2016-04-17T09:11:01.221Z,18.29
2016-04-17T09:12:00.991Z,18.23
2016-04-17T09:13:00.977Z,18.2
2016-04-17T09:14:00.964Z,18.25
2016-04-17T09:15:00.935Z,18.21
2016-04-17T09:16:00.923Z,18.17
2016-04-17T09:17:00.894Z,18.25
2016-04-17T09:18:00.866Z,18.19
2016-04-17T09:19:01.149Z,18.17
2016-04-17T09:20:00.840Z,18.19
2016-04-17T09:21:00.827Z,18.21
2016-04-17T09:22:00.798Z,18.17
2016-04-17T09:23:00.801Z,18.19
2016-04-17T09:24:00.772Z,18.19
2016-04-17T09:25:00.744Z,18.25
2016-04-17T09:26:00.981Z,18.2
2016-04-17T09:27:00.718Z,18.19
2016-04-17T09:28:00.534Z,18.19
2016-04-17T09:29:00.662Z,18.2
2016-04-17T09:30:00.648Z,18.17
2016-04-17T09:31:00.620Z,18.25
2016-04-17T09:32:00.622Z,18.17
2016-04-17T09:33:00.593Z,18.21
2016-04-17T09:34:00.768Z,18.25
2016-04-17T09:35:00.553Z,18.25
2016-04-17T09:36:00.539Z,18.25
2016-04-17T09:37:00.511Z,18.21
2016-04-17T09:38:00.498Z,18.17
2016-04-17T09:39:00.485Z,18.19
2016-04-17T09:40:00.472Z,18.21
2016-04-17T09:41:00.459Z,18.21
2016-04-17T09:42:00.822Z,18.21
2016-04-17T09:43:00.402Z,18.2
2016-04-17T09:44:00.388Z,18.17
2016-04-17T09:45:00.375Z,18.17
2016-04-17T09:46:00.332Z,18.19
2016-04-17T09:47:00.319Z,18.19
2016-04-17T09:48:00.305Z,18.17
2016-04-17T09:49:00.278Z,18.2
2016-04-17T09:50:00.811Z,18.19
2016-04-17T09:51:00.236Z,18.21
2016-04-17T09:52:00.239Z,18.19
2016-04-17T09:53:00.210Z,18.21
2016-04-17T09:54:00.197Z,18.14
2016-04-17T09:55:00.185Z,18.19
2016-04-17T09:56:00.155Z,18.21
2016-04-17T09:57:00.143Z,18.25
2016-04-17T09:58:00.818Z,18.21
2016-04-17T09:59:00.101Z,18.21
2016-04-17T10:00:00.087Z,18.21
2016-04-17T10:01:00.059Z,18.17
2016-04-17T10:02:00.031Z,18.14
2016-04-17T10:02:59.862Z,18.14
2016-04-17T10:04:00.006Z,18.21
2016-04-17T10:04:59.977Z,18.23
2016-04-17T10:06:00.057Z,18.19
2016-04-17T10:06:59.951Z,18.16
2016-04-17T10:07:59.923Z,18.14
2016-04-17T10:08:59.925Z,18.13
2016-04-17T10:09:59.896Z,18.19
2016-04-17T10:10:59.868Z,18.16
2016-04-17T10:11:59.855Z,18.19
2016-04-17T10:12:59.826Z,18.2
2016-04-17T10:14:00.860Z,18.14
2016-04-17T10:14:59.785Z,18.2
2016-04-17T10:15:59.771Z,18.25
2016-04-17T10:16:59.759Z,18.16
2016-04-17T10:17:59.730Z,18.14
2016-04-17T10:18:59.702Z,18.17
2016-04-17T10:19:59.689Z,18.23
2016-04-17T10:20:59.676Z,18.21
2016-04-17T10:22:00.225Z,18.19
2016-04-17T10:22:59.634Z,18.17
2016-04-17T10:23:59.621Z,18.19
2016-04-17T10:24:59.608Z,18.21
2016-04-17T10:25:59.579Z,18.21
2016-04-17T10:26:59.395Z,18.17
2016-04-17T10:27:59.554Z,18.21
2016-04-17T10:28:59.526Z,18.17
2016-04-17T10:29:59.497Z,18.16
2016-04-17T10:30:59.484Z,18.2
2016-04-17T10:31:59.487Z,18.34
2016-04-17T10:32:59.442Z,18.49
2016-04-17T10:33:59.445Z,18.53
2016-04-17T10:34:59.401Z,18.65
2016-04-17T10:35:59.387Z,18.72
2016-04-17T10:36:59.359Z,18.72
2016-04-17T10:37:59.347Z,18.86
2016-04-17T10:38:59.318Z,18.84
2016-04-17T10:39:59.306Z,18.82
2016-04-17T10:40:59.292Z,18.9
2016-04-17T10:41:59.279Z,18.86
2016-04-17T10:42:59.250Z,18.86
2016-04-17T10:43:59.238Z,18.74
2016-04-17T10:44:59.225Z,18.65
2016-04-17T10:45:59.196Z,18.32
2016-04-17T10:46:59.184Z,18.1
2016-04-17T10:47:59.169Z,17.99
2016-04-17T10:48:59.142Z,17.92
2016-04-17T10:49:59.130Z,17.89
2016-04-17T10:50:59.100Z,17.91
2016-04-17T10:51:59.088Z,18.14
2016-04-17T10:52:59.059Z,18.42
2016-04-17T10:53:59.046Z,18.74
2016-04-17T10:54:59.143Z,19.1
2016-04-17T10:55:59.020Z,19.31
2016-04-17T10:56:59.007Z,19.58
2016-04-17T10:57:58.978Z,19.78
2016-04-17T10:58:58.949Z,19.92
2016-04-17T10:59:58.938Z,20.13
2016-04-17T11:00:58.909Z,20.31
2016-04-17T11:01:58.896Z,20.5
2016-04-17T11:02:59.242Z,20.73
2016-04-17T11:03:58.870Z,20.94
2016-04-17T11:04:58.841Z,21.28
2016-04-17T11:05:58.828Z,21.64
2016-04-17T11:06:58.815Z,21.99
2016-04-17T11:07:58.802Z,22.17
2016-04-17T11:08:58.773Z,22.51
2016-04-17T11:09:58.761Z,22.7
2016-04-17T11:10:59.294Z,22.93
2016-04-17T11:11:58.734Z,23.09
2016-04-17T11:12:58.706Z,23.29
2016-04-17T11:13:58.694Z,23.32
2016-04-17T11:14:58.681Z,23.38
2016-04-17T11:15:58.652Z,23.41
2016-04-17T11:16:58.639Z,23.5
2016-04-17T11:17:58.626Z,23.5
2016-04-17T11:18:59.160Z,23.44
2016-04-17T11:19:58.600Z,23.42
2016-04-17T11:20:58.572Z,23.56
2016-04-17T11:21:57.841Z,23.57
2016-04-17T11:22:58.546Z,23.63
2016-04-17T11:23:58.532Z,23.42
2016-04-17T11:24:58.504Z,23.5
2016-04-17T11:25:58.491Z,23.44
2016-04-17T11:26:59.182Z,23.26
2016-04-17T11:27:58.465Z,23.22
2016-04-17T11:28:58.452Z,23.19
2016-04-17T11:29:58.440Z,23.16
2016-04-17T11:30:58.426Z,23.15
2016-04-17T11:31:58.429Z,23.03
2016-04-17T11:32:58.385Z,22.93
2016-04-17T11:33:58.387Z,22.82
2016-04-17T11:34:58.501Z,22.84
2016-04-17T11:35:58.346Z,22.81
2016-04-17T11:36:58.333Z,22.7
2016-04-17T11:37:58.320Z,22.69
2016-04-17T11:38:58.307Z,22.54
2016-04-17T11:39:58.279Z,22.57
2016-04-17T11:40:58.250Z,22.46
2016-04-17T11:41:58.253Z,22.54
2016-04-17T11:42:58.428Z,22.56
2016-04-17T11:43:58.212Z,22.59
2016-04-17T11:44:58.199Z,22.59
2016-04-17T11:45:58.201Z,22.57
2016-04-17T11:46:58.173Z,22.61
2016-04-17T11:47:58.161Z,22.67
2016-04-17T11:48:58.147Z,22.69
2016-04-17T11:49:58.197Z,22.66
2016-04-17T11:50:58.464Z,22.79
2016-04-17T11:51:58.108Z,22.81
2016-04-17T11:52:58.079Z,22.79
2016-04-17T11:53:58.066Z,22.75
2016-04-17T11:54:57.319Z,22.72
2016-04-17T11:55:58.025Z,22.76
2016-04-17T11:56:58.012Z,22.78
2016-04-17T11:57:58.062Z,22.84
2016-04-17T11:58:57.986Z,22.86
2016-04-17T11:59:57.974Z,22.89
2016-04-17T12:00:57.946Z,22.84
2016-04-17T12:01:57.932Z,22.85
2016-04-17T12:02:57.935Z,22.93
2016-04-17T12:03:57.907Z,22.88
2016-04-17T12:04:57.893Z,22.84
2016-04-17T12:05:58.146Z,22.89
2016-04-17T12:06:57.868Z,22.91
2016-04-17T12:07:57.839Z,22.86
2016-04-17T12:08:57.842Z,22.82
2016-04-17T12:09:57.812Z,22.81
2016-04-17T12:10:57.784Z,22.84
2016-04-17T12:11:57.771Z,22.81
2016-04-17T12:12:57.759Z,22.74
2016-04-17T12:13:58.089Z,22.64
2016-04-17T12:14:57.733Z,22.52
2016-04-17T12:15:57.719Z,22.48
2016-04-17T12:16:57.691Z,22.33
2016-04-17T12:17:57.678Z,22.23
2016-04-17T12:18:57.664Z,22.2
2016-04-17T12:19:57.667Z,22.06
2016-04-17T12:20:57.639Z,21.96
2016-04-17T12:21:58.173Z,21.81
2016-04-17T12:22:57.597Z,21.66
2016-04-17T12:23:57.585Z,21.56
2016-04-17T12:24:57.571Z,21.4
2016-04-17T12:25:57.544Z,21.27
2016-04-17T12:26:57.391Z,21.11
2016-04-17T12:27:57.533Z,21.09
2016-04-17T12:28:57.489Z,21.09
2016-04-17T12:29:58.241Z,21.24
2016-04-17T12:30:57.479Z,21.28
2016-04-17T12:31:57.450Z,21.22
2016-04-17T12:32:57.438Z,21.28
2016-04-17T12:33:57.409Z,21.28
2016-04-17T12:34:57.396Z,21.33
2016-04-17T12:35:57.383Z,21.36
2016-04-17T12:36:57.385Z,21.34
2016-04-17T12:37:57.404Z,21.53
2016-04-17T12:38:57.329Z,21.55
2016-04-17T12:39:57.315Z,21.61
2016-04-17T12:40:57.303Z,21.63
2016-04-17T12:41:57.290Z,21.74
2016-04-17T12:42:57.276Z,21.81
2016-04-17T12:43:57.247Z,21.86
2016-04-17T12:44:57.234Z,21.86
2016-04-17T12:45:57.425Z,21.91
2016-04-17T12:46:57.194Z,21.98
2016-04-17T12:47:57.181Z,21.86
2016-04-17T12:48:57.183Z,21.74
2016-04-17T12:49:57.155Z,21.75
2016-04-17T12:50:57.157Z,21.73
2016-04-17T12:51:58.863Z,21.79
2016-04-17T12:52:57.210Z,21.74
2016-04-17T12:53:58.790Z,21.79